createdAt,value
2017-05-11T00:01:04.642Z,19.99
2017-05-11T00:02:14.917Z,19.98
2017-05-11T00:03:24.868Z,19.99
2017-05-11T00:04:35.139Z,19.98
2017-05-11T00:05:45.083Z,19.95
2017-05-11T00:06:54.780Z,19.92
2017-05-11T00:08:05.045Z,19.94
2017-05-11T00:09:14.995Z,19.98
2017-05-11T00:10:24.951Z,19.91
2017-05-11T00:11:34.909Z,19.95
2017-05-11T00:12:45.175Z,19.91
2017-05-11T00:13:55.441Z,19.99
2017-05-11T00:15:05.392Z,19.96
2017-05-11T00:16:15.655Z,19.91
2017-05-11T00:17:25.922Z,19.91
2017-05-11T00:18:35.553Z,19.96
2017-05-11T00:19:45.504Z,19.95
2017-05-11T00:20:55.775Z,19.83
2017-05-11T00:22:05.727Z,19.87
2017-05-11T00:23:15.997Z,19.92
2017-05-11T00:24:26.271Z,19.91
2017-05-11T00:25:36.226Z,19.86
2017-05-11T00:26:46.505Z,19.81
2017-05-11T00:27:56.458Z,19.78
2017-05-11T00:29:06.402Z,19.78
2017-05-11T00:30:16.669Z,19.81
2017-05-11T00:31:26.988Z,19.78
2017-05-11T00:32:36.619Z,19.84
2017-05-11T00:33:46.567Z,19.77
2017-05-11T00:34:56.519Z,19.8
2017-05-11T00:36:06.481Z,19.84
2017-05-11T00:37:16.756Z,19.8
2017-05-11T00:38:26.709Z,19.83
2017-05-11T00:39:36.669Z,19.8
2017-05-11T00:40:46.623Z,19.81
2017-05-11T00:41:56.568Z,19.81
2017-05-11T00:43:06.838Z,19.8
2017-05-11T00:44:17.129Z,19.81
2017-05-11T00:45:26.778Z,19.77
2017-05-11T00:46:37.046Z,19.78
2017-05-11T00:47:47.310Z,19.81
2017-05-11T00:48:57.580Z,19.8
2017-05-11T00:50:07.528Z,19.81
2017-05-11T00:51:17.795Z,19.81
2017-05-11T00:52:28.068Z,19.78
2017-05-11T00:53:38.021Z,19.76
2017-05-11T00:54:48.294Z,19.81
2017-05-11T00:55:58.242Z,19.8
2017-05-11T00:57:08.502Z,19.81
2017-05-11T00:58:18.759Z,19.77
2017-05-11T00:59:29.059Z,19.76
2017-05-11T01:00:39.331Z,19.77
2017-05-11T01:01:49.598Z,19.81
2017-05-11T01:02:59.861Z,19.77
2017-05-11T01:04:10.129Z,19.84
2017-05-11T01:05:20.078Z,19.74
2017-05-11T01:06:30.334Z,19.78
2017-05-11T01:07:40.599Z,19.73
2017-05-11T01:08:50.237Z,19.73
2017-05-11T01:09:59.872Z,19.73
2017-05-11T01:11:09.826Z,19.66
2017-05-11T01:12:20.103Z,19.73
2017-05-11T01:13:30.365Z,19.68
2017-05-11T01:14:40.630Z,19.68
2017-05-11T01:15:50.893Z,19.69
2017-05-11T01:17:00.838Z,19.68
2017-05-11T01:18:10.784Z,19.65
2017-05-11T01:19:21.051Z,19.77
2017-05-11T01:20:31.001Z,19.68
2017-05-11T01:21:40.955Z,19.71
2017-05-11T01:22:51.216Z,19.73
2017-05-11T01:24:00.850Z,19.69
2017-05-11T01:25:10.804Z,19.68
2017-05-11T01:26:20.758Z,19.68
2017-05-11T01:27:31.024Z,19.63
2017-05-11T01:28:40.974Z,19.73
2017-05-11T01:29:51.243Z,19.74
2017-05-11T01:31:01.198Z,19.71
2017-05-11T01:32:11.167Z,19.69
2017-05-11T01:33:21.430Z,19.73
2017-05-11T01:34:31.060Z,19.61
2017-05-11T01:35:41.323Z,19.68
2017-05-11T01:36:51.584Z,19.61
2017-05-11T01:38:01.843Z,19.66
2017-05-11T01:39:12.154Z,19.63
2017-05-11T01:40:21.791Z,19.68
2017-05-11T01:41:32.053Z,19.58
2017-05-11T01:42:42.314Z,19.61
2017-05-11T01:43:52.593Z,19.61
2017-05-11T01:45:01.598Z,19.62
2017-05-11T01:46:11.233Z,19.71
2017-05-11T01:47:21.499Z,19.69
2017-05-11T01:48:31.768Z,19.73
2017-05-11T01:49:42.041Z,19.73
2017-05-11T01:50:52.322Z,19.73
2017-05-11T01:52:02.274Z,19.73
2017-05-11T01:53:12.229Z,19.62
2017-05-11T01:54:22.502Z,19.68
2017-05-11T01:55:32.792Z,19.59
2017-05-11T01:56:43.059Z,19.65
2017-05-11T01:57:53.323Z,19.66
2017-05-11T01:59:03.272Z,19.59
2017-05-11T02:00:13.214Z,19.65
2017-05-11T02:01:23.489Z,19.63
2017-05-11T02:02:33.754Z,19.63
2017-05-11T02:03:44.040Z,19.63
2017-05-11T02:04:54.302Z,19.63
2017-05-11T02:06:04.563Z,19.63
2017-05-11T02:07:14.829Z,19.71
2017-05-11T02:08:25.088Z,19.83
2017-05-11T02:09:35.044Z,19.74
2017-05-11T02:10:45.316Z,19.84
2017-05-11T02:11:55.580Z,19.83
2017-05-11T02:13:05.839Z,19.81
2017-05-11T02:14:15.789Z,19.86
2017-05-11T02:15:25.743Z,19.78
2017-05-11T02:16:35.381Z,19.84
2017-05-11T02:17:45.656Z,19.87
2017-05-11T02:18:55.925Z,19.84
2017-05-11T02:20:06.192Z,19.87
2017-05-11T02:21:16.455Z,19.62
2017-05-11T02:22:26.406Z,19.55
2017-05-11T02:23:36.368Z,19.54
2017-05-11T02:24:46.327Z,19.61
2017-05-11T02:25:56.586Z,19.73
2017-05-11T02:27:06.859Z,19.74
2017-05-11T02:28:17.137Z,19.8
2017-05-11T02:29:27.412Z,19.76
2017-05-11T02:30:37.674Z,19.81
2017-05-11T02:31:47.942Z,19.83
2017-05-11T02:32:57.893Z,19.76
2017-05-11T02:34:08.159Z,19.77
2017-05-11T02:35:18.426Z,19.78
2017-05-11T02:36:28.383Z,19.78
2017-05-11T02:37:38.655Z,19.83
2017-05-11T02:38:49.014Z,19.8
2017-05-11T02:39:59.282Z,19.81
2017-05-11T02:41:09.233Z,19.84
2017-05-11T02:42:19.493Z,19.78
2017-05-11T02:43:29.761Z,19.81
2017-05-11T02:44:40.029Z,19.86
2017-05-11T02:45:49.979Z,19.81
2017-05-11T02:47:00.242Z,19.86
2017-05-11T02:48:10.201Z,19.88
2017-05-11T02:49:20.156Z,19.81
2017-05-11T02:50:30.423Z,19.87
2017-05-11T02:51:40.692Z,19.76
2017-05-11T02:52:50.957Z,19.8
2017-05-11T02:54:00.910Z,19.78
2017-05-11T02:55:11.176Z,19.81
2017-05-11T02:56:20.817Z,19.88
2017-05-11T02:57:30.763Z,19.83
2017-05-11T02:58:40.721Z,19.86
2017-05-11T02:59:50.985Z,19.78
2017-05-11T03:01:00.618Z,19.84
2017-05-11T03:02:10.286Z,19.78
2017-05-11T03:03:20.550Z,19.81
2017-05-11T03:04:30.498Z,19.92
2017-05-11T03:05:40.762Z,19.96
2017-05-11T03:06:50.713Z,20.01
2017-05-11T03:08:00.981Z,19.88
2017-05-11T03:09:11.252Z,19.92
2017-05-11T03:10:21.522Z,19.92
2017-05-11T03:11:31.786Z,19.91
2017-05-11T03:12:42.052Z,19.87
2017-05-11T03:13:51.380Z,19.88
2017-05-11T03:15:01.353Z,19.94
2017-05-11T03:16:11.312Z,19.87
2017-05-11T03:17:20.946Z,19.81
2017-05-11T03:18:30.897Z,19.87
2017-05-11T03:19:41.171Z,19.86
2017-05-11T03:20:51.164Z,19.78
2017-05-11T03:22:01.117Z,19.78
2017-05-11T03:23:11.067Z,19.78
2017-05-11T03:24:21.337Z,19.76
2017-05-11T03:25:31.302Z,19.77
2017-05-11T03:26:41.577Z,19.74
2017-05-11T03:27:50.903Z,19.68
2017-05-11T03:29:00.862Z,19.59
2017-05-11T03:30:10.820Z,19.59
2017-05-11T03:31:21.096Z,19.61
2017-05-11T03:32:31.044Z,19.58
2017-05-11T03:33:40.999Z,19.61
2017-05-11T03:34:51.265Z,19.66
2017-05-11T03:36:01.533Z,19.69
2017-05-11T03:37:11.497Z,19.78
2017-05-11T03:38:21.766Z,19.78
2017-05-11T03:39:32.075Z,19.81
2017-05-11T03:40:41.708Z,19.81
2017-05-11T03:41:51.974Z,19.81
2017-05-11T03:43:01.919Z,19.84
2017-05-11T03:44:12.184Z,19.87
2017-05-11T03:45:22.134Z,19.86
2017-05-11T03:46:31.767Z,19.78
2017-05-11T03:47:42.033Z,19.8
2017-05-11T03:48:51.995Z,19.84
2017-05-11T03:50:01.642Z,19.83
2017-05-11T03:51:11.923Z,19.81
2017-05-11T03:52:21.875Z,19.84
2017-05-11T03:53:31.831Z,19.81
2017-05-11T03:54:42.101Z,19.76
2017-05-11T03:55:52.057Z,19.78
2017-05-11T03:57:02.332Z,19.69
2017-05-11T03:58:12.594Z,19.81
2017-05-11T03:59:22.860Z,19.76
2017-05-11T04:00:33.129Z,19.78
2017-05-11T04:01:43.436Z,19.74
2017-05-11T04:02:53.384Z,19.71
2017-05-11T04:04:03.337Z,19.76
2017-05-11T04:05:12.972Z,19.71
2017-05-11T04:06:22.920Z,19.74
2017-05-11T04:07:33.189Z,19.71
2017-05-11T04:08:43.457Z,19.73
2017-05-11T04:09:53.731Z,19.68
2017-05-11T04:11:03.992Z,19.71
2017-05-11T04:12:14.255Z,19.71
2017-05-11T04:13:24.527Z,19.74
2017-05-11T04:14:34.481Z,19.71
2017-05-11T04:15:44.430Z,19.71
2017-05-11T04:16:54.187Z,19.66
2017-05-11T04:18:04.457Z,19.71
2017-05-11T04:19:14.406Z,19.69
2017-05-11T04:20:24.674Z,19.68
2017-05-11T04:21:34.940Z,19.71
2017-05-11T04:22:45.209Z,19.74
2017-05-11T04:23:55.492Z,19.71
2017-05-11T04:25:05.128Z,19.69
2017-05-11T04:26:15.387Z,19.69
2017-05-11T04:27:25.337Z,19.74
2017-05-11T04:28:35.600Z,19.73
2017-05-11T04:29:45.865Z,19.68
2017-05-11T04:30:56.130Z,19.69
2017-05-11T04:32:06.086Z,19.68
2017-05-11T04:33:16.040Z,19.68
2017-05-11T04:34:26.309Z,19.76
2017-05-11T04:35:36.579Z,19.68
2017-05-11T04:36:46.530Z,19.71
2017-05-11T04:37:56.489Z,19.66
2017-05-11T04:39:06.766Z,19.66
2017-05-11T04:40:16.715Z,19.69
2017-05-11T04:41:26.979Z,19.66
2017-05-11T04:42:36.938Z,19.68
2017-05-11T04:43:46.574Z,19.74
2017-05-11T04:44:56.531Z,19.69
2017-05-11T04:46:06.801Z,19.65
2017-05-11T04:47:16.752Z,19.68
2017-05-11T04:48:27.012Z,19.69
2017-05-11T04:49:36.955Z,19.71
2017-05-11T04:50:47.223Z,19.66
2017-05-11T04:51:57.490Z,19.68
2017-05-11T04:53:07.450Z,19.66
2017-05-11T04:54:17.723Z,19.74
2017-05-11T04:55:27.360Z,19.69
2017-05-11T04:56:37.621Z,19.71
2017-05-11T04:57:47.257Z,19.69
2017-05-11T04:58:57.259Z,19.69
2017-05-11T05:00:07.217Z,19.73
2017-05-11T05:01:17.167Z,19.74
2017-05-11T05:02:27.110Z,19.68
2017-05-11T05:03:37.053Z,19.69
2017-05-11T05:04:47.322Z,19.62
2017-05-11T05:05:57.274Z,19.62
2017-05-11T05:07:07.233Z,19.65
2017-05-11T05:08:16.873Z,19.59
2017-05-11T05:09:27.149Z,19.59
2017-05-11T05:10:37.422Z,19.55
2017-05-11T05:11:47.687Z,19.59
2017-05-11T05:12:57.996Z,19.59
2017-05-11T05:14:07.941Z,19.65
2017-05-11T05:15:17.571Z,19.73
2017-05-11T05:16:27.833Z,19.73
2017-05-11T05:17:38.101Z,19.74
2017-05-11T05:18:48.358Z,19.66
2017-05-11T05:19:58.314Z,19.71
2017-05-11T05:21:08.267Z,19.71
2017-05-11T05:22:17.589Z,19.74
2017-05-11T05:23:27.856Z,19.76
2017-05-11T05:24:38.122Z,19.77
2017-05-11T05:25:47.768Z,19.71
2017-05-11T05:26:57.730Z,19.77
2017-05-11T05:28:07.361Z,19.74
2017-05-11T05:29:16.997Z,19.74
2017-05-11T05:30:27.258Z,19.66
2017-05-11T05:31:37.208Z,19.74
2017-05-11T05:32:47.476Z,19.77
2017-05-11T05:33:57.426Z,19.69
2017-05-11T05:35:07.382Z,19.66
2017-05-11T05:36:17.338Z,19.73
2017-05-11T05:37:27.603Z,19.73
2017-05-11T05:38:37.235Z,19.73
2017-05-11T05:39:47.506Z,19.78
2017-05-11T05:40:57.774Z,19.81
2017-05-11T05:42:07.724Z,19.81
2017-05-11T05:43:17.040Z,19.78
2017-05-11T05:44:26.682Z,19.77
2017-05-11T05:45:36.939Z,19.8
2017-05-11T05:46:47.201Z,19.78
2017-05-11T05:47:57.157Z,19.8
2017-05-11T05:49:06.792Z,19.78
2017-05-11T05:50:16.425Z,19.81
2017-05-11T05:51:26.689Z,19.81
2017-05-11T05:52:36.957Z,19.81
2017-05-11T05:53:46.908Z,19.81
2017-05-11T05:54:57.177Z,19.78
2017-05-11T05:56:07.123Z,19.84
2017-05-11T05:57:17.075Z,19.84
2017-05-11T05:58:27.340Z,19.77
2017-05-11T05:59:36.976Z,19.86
2017-05-11T06:00:46.921Z,19.84
2017-05-11T06:01:57.224Z,19.88
2017-05-11T06:03:07.169Z,19.86
2017-05-11T06:04:16.806Z,19.88
2017-05-11T06:05:27.071Z,19.91
2017-05-11T06:06:37.338Z,19.91
2017-05-11T06:07:46.980Z,19.91
2017-05-11T06:08:57.247Z,19.81
2017-05-11T06:10:07.511Z,19.88
2017-05-11T06:11:17.770Z,19.86
2017-05-11T06:12:27.724Z,19.8
2017-05-11T06:13:37.991Z,19.83
2017-05-11T06:14:48.255Z,19.88
2017-05-11T06:15:58.211Z,19.86
2017-05-11T06:17:08.162Z,19.86
2017-05-11T06:18:18.109Z,19.92
2017-05-11T06:19:28.084Z,19.83
2017-05-11T06:20:38.353Z,19.86
2017-05-11T06:21:48.621Z,19.87
2017-05-11T06:22:58.571Z,19.91
2017-05-11T06:24:08.203Z,19.84
2017-05-11T06:25:17.844Z,19.87
2017-05-11T06:26:27.793Z,19.87
2017-05-11T06:27:38.067Z,19.87
2017-05-11T06:28:48.335Z,19.95
2017-05-11T06:29:58.293Z,19.98
2017-05-11T06:31:08.562Z,19.95
2017-05-11T06:32:18.512Z,19.96
2017-05-11T06:33:28.472Z,19.98
2017-05-11T06:34:38.740Z,20.02
2017-05-11T06:35:49.007Z,19.95
2017-05-11T06:36:58.959Z,20.01
2017-05-11T06:38:08.600Z,20.02
2017-05-11T06:39:18.550Z,19.98
2017-05-11T06:40:28.814Z,20.05
2017-05-11T06:41:39.084Z,20.1
2017-05-11T06:42:49.076Z,20.05
2017-05-11T06:43:58.722Z,20.08
2017-05-11T06:45:08.671Z,20.1
2017-05-11T06:46:18.617Z,20.08
2017-05-11T06:47:28.568Z,20.17
2017-05-11T06:48:38.843Z,20.16
2017-05-11T06:49:49.109Z,20.16
2017-05-11T06:50:59.372Z,20.14
2017-05-11T06:52:09.652Z,20.2
2017-05-11T06:53:19.921Z,20.17
2017-05-11T06:54:29.865Z,20.16
2017-05-11T06:55:40.141Z,20.17
2017-05-11T06:56:50.098Z,20.16
2017-05-11T06:57:59.736Z,20.17
2017-05-11T06:59:09.696Z,20.21
2017-05-11T07:00:19.962Z,20.16
2017-05-11T07:01:29.600Z,20.18
2017-05-11T07:02:39.557Z,20.14
2017-05-11T07:03:49.826Z,20.11
2017-05-11T07:05:00.088Z,20.28
2017-05-11T07:06:10.361Z,20.29
2017-05-11T07:07:20.635Z,20.11
2017-05-11T07:08:30.900Z,20.24
2017-05-11T07:09:40.851Z,20.28
2017-05-11T07:10:51.122Z,20.21
2017-05-11T07:12:01.387Z,20.2
2017-05-11T07:13:11.342Z,20.28
2017-05-11T07:14:21.294Z,20.24
2017-05-11T07:15:31.598Z,20.26
2017-05-11T07:16:41.866Z,20.24
2017-05-11T07:17:51.851Z,20.21
2017-05-11T07:19:01.807Z,20.24
2017-05-11T07:20:11.761Z,20.26
2017-05-11T07:21:22.036Z,20.28
2017-05-11T07:22:31.988Z,20.31
2017-05-11T07:23:41.942Z,20.32
2017-05-11T07:24:51.623Z,20.35
2017-05-11T07:26:01.886Z,20.38
2017-05-11T07:27:11.836Z,20.26
2017-05-11T07:28:21.485Z,20.31
2017-05-11T07:29:31.747Z,20.36
2017-05-11T07:30:42.026Z,20.26
2017-05-11T07:31:52.299Z,20.32
2017-05-11T07:33:02.563Z,20.26
2017-05-11T07:34:12.517Z,20.29
2017-05-11T07:35:22.783Z,20.32
2017-05-11T07:36:32.734Z,20.33
2017-05-11T07:37:42.373Z,20.32
2017-05-11T07:38:52.329Z,20.33
2017-05-11T07:40:02.593Z,20.29
2017-05-11T07:41:12.548Z,20.35
2017-05-11T07:42:22.495Z,20.35
2017-05-11T07:43:32.762Z,20.35
2017-05-11T07:44:43.031Z,20.32
2017-05-11T07:45:52.983Z,20.35
2017-05-11T07:47:02.616Z,20.28
2017-05-11T07:48:12.877Z,20.33
2017-05-11T07:49:22.831Z,20.33
2017-05-11T07:50:32.787Z,20.29
2017-05-11T07:51:43.061Z,20.31
2017-05-11T07:52:53.327Z,20.32
2017-05-11T07:54:03.591Z,20.35
2017-05-11T07:55:13.866Z,20.32
2017-05-11T07:56:23.813Z,20.31
2017-05-11T07:57:34.127Z,20.33
2017-05-11T07:58:44.401Z,20.32
2017-05-11T07:59:54.369Z,20.31
2017-05-11T08:01:04.634Z,20.35
2017-05-11T08:02:14.277Z,20.29
2017-05-11T08:03:23.917Z,20.33
2017-05-11T08:04:34.185Z,20.31
2017-05-11T08:05:44.137Z,20.35
2017-05-11T08:06:54.407Z,20.31
2017-05-11T08:08:04.357Z,20.35
2017-05-11T08:09:14.627Z,20.35
2017-05-11T08:10:24.897Z,20.33
2017-05-11T08:11:35.167Z,20.38
2017-05-11T08:12:45.119Z,20.31
2017-05-11T08:13:55.385Z,20.32
2017-05-11T08:15:05.052Z,20.39
2017-05-11T08:16:15.329Z,20.32
2017-05-11T08:17:25.282Z,20.29
2017-05-11T08:18:35.545Z,20.32
2017-05-11T08:19:45.866Z,20.32
2017-05-11T08:20:55.511Z,20.29
2017-05-11T08:22:05.464Z,20.32
2017-05-11T08:23:15.111Z,20.38
2017-05-11T08:24:25.391Z,20.32
2017-05-11T08:25:35.696Z,20.38
2017-05-11T08:26:45.967Z,20.32
2017-05-11T08:27:55.922Z,20.38
2017-05-11T08:29:05.868Z,20.32
2017-05-11T08:30:15.823Z,20.38
2017-05-11T08:31:25.485Z,20.33
2017-05-11T08:32:35.762Z,20.41
2017-05-11T08:33:46.026Z,20.41
2017-05-11T08:34:55.977Z,20.38
2017-05-11T08:36:05.931Z,20.32
2017-05-11T08:37:15.567Z,20.39
2017-05-11T08:38:25.838Z,20.36
2017-05-11T08:39:36.106Z,20.39
2017-05-11T08:40:46.407Z,20.38
2017-05-11T08:41:56.689Z,20.36
2017-05-11T08:43:06.638Z,20.39
2017-05-11T08:44:16.913Z,20.39
2017-05-11T08:45:27.183Z,20.39
2017-05-11T08:46:37.453Z,20.38
2017-05-11T08:47:47.412Z,20.39
2017-05-11T08:48:57.050Z,20.35
2017-05-11T08:50:07.335Z,20.38
2017-05-11T08:51:17.607Z,20.39
2017-05-11T08:52:27.562Z,20.39
2017-05-11T08:53:37.834Z,20.38
2017-05-11T08:54:48.099Z,20.38
2017-05-11T08:55:57.413Z,20.38
2017-05-11T08:57:07.068Z,20.39
2017-05-11T08:58:17.336Z,20.36
2017-05-11T08:59:27.642Z,20.36
2017-05-11T09:00:37.602Z,20.33
2017-05-11T09:01:47.233Z,20.36
2017-05-11T09:02:57.190Z,20.38
2017-05-11T09:04:06.834Z,20.38
2017-05-11T09:05:17.101Z,20.35
2017-05-11T09:06:27.052Z,20.38
2017-05-11T09:07:36.696Z,20.35
2017-05-11T09:08:46.654Z,20.36
2017-05-11T09:09:56.656Z,20.38
2017-05-11T09:11:06.919Z,20.32
2017-05-11T09:12:17.192Z,20.32
2017-05-11T09:13:27.144Z,20.36
2017-05-11T09:14:37.411Z,20.38
2017-05-11T09:15:47.365Z,20.28
2017-05-11T09:16:57.012Z,20.33
2017-05-11T09:18:07.279Z,20.35
2017-05-11T09:19:17.247Z,20.33
2017-05-11T09:20:27.204Z,20.33
2017-05-11T09:21:37.161Z,20.32
2017-05-11T09:22:47.114Z,20.28
2017-05-11T09:23:57.073Z,20.31
2017-05-11T09:25:07.037Z,20.33
2017-05-11T09:26:17.308Z,20.33
2017-05-11T09:27:27.577Z,20.32
2017-05-11T09:28:37.530Z,20.32
2017-05-11T09:29:47.798Z,20.35
2017-05-11T09:30:57.743Z,20.35
2017-05-11T09:32:07.383Z,20.36
2017-05-11T09:33:17.653Z,20.32
2017-05-11T09:34:27.603Z,20.33
2017-05-11T09:35:37.873Z,20.29
2017-05-11T09:36:48.152Z,20.32
2017-05-11T09:37:58.450Z,20.31
2017-05-11T09:39:08.726Z,20.31
2017-05-11T09:40:19.001Z,20.35
2017-05-11T09:41:29.265Z,20.33
2017-05-11T09:42:39.224Z,20.36
2017-05-11T09:43:48.871Z,20.33
2017-05-11T09:44:58.508Z,20.35
2017-05-11T09:46:08.785Z,20.26
2017-05-11T09:47:18.742Z,20.38
2017-05-11T09:48:28.380Z,20.39
2017-05-11T09:49:38.328Z,20.29
2017-05-11T09:50:48.592Z,20.35
2017-05-11T09:51:58.859Z,20.36
2017-05-11T09:53:09.133Z,20.35
2017-05-11T09:54:19.401Z,20.33
2017-05-11T09:55:29.363Z,20.31
2017-05-11T09:56:39.637Z,20.31
2017-05-11T09:57:49.278Z,20.31
2017-05-11T09:58:59.231Z,20.32
2017-05-11T10:00:09.513Z,20.32
2017-05-11T10:01:19.777Z,20.32
2017-05-11T10:02:29.727Z,20.33
2017-05-11T10:03:39.681Z,20.32
2017-05-11T10:04:49.629Z,20.35
2017-05-11T10:05:59.895Z,20.35
2017-05-11T10:07:09.854Z,20.32
2017-05-11T10:08:19.498Z,20.33
2017-05-11T10:09:29.131Z,20.33
2017-05-11T10:10:39.082Z,20.31
2017-05-11T10:11:49.347Z,20.32
2017-05-11T10:12:59.623Z,20.29
2017-05-11T10:14:09.583Z,20.29
2017-05-11T10:15:19.540Z,20.35
2017-05-11T10:16:29.186Z,20.36
2017-05-11T10:17:39.474Z,20.32
2017-05-11T10:18:49.744Z,20.35
2017-05-11T10:20:00.016Z,20.31
2017-05-11T10:21:09.976Z,20.33
2017-05-11T10:22:20.245Z,20.31
2017-05-11T10:23:30.509Z,20.36
2017-05-11T10:24:40.777Z,20.29
2017-05-11T10:25:51.043Z,20.35
2017-05-11T10:27:01.308Z,20.23
2017-05-11T10:28:11.268Z,20.28
2017-05-11T10:29:21.219Z,20.31
2017-05-11T10:30:31.487Z,20.36
2017-05-11T10:31:41.441Z,20.29
2017-05-11T10:32:51.390Z,20.32
2017-05-11T10:34:01.664Z,20.36
2017-05-11T10:35:11.932Z,20.31
2017-05-11T10:36:22.204Z,20.29
2017-05-11T10:37:32.474Z,20.31
2017-05-11T10:38:42.428Z,20.28
2017-05-11T10:39:52.693Z,20.29
2017-05-11T10:41:02.969Z,20.29
2017-05-11T10:42:12.598Z,20.28
2017-05-11T10:43:22.545Z,20.33
2017-05-11T10:44:32.178Z,20.31
2017-05-11T10:45:42.444Z,20.24
2017-05-11T10:46:52.712Z,20.26
2017-05-11T10:48:02.350Z,20.29
2017-05-11T10:49:12.616Z,20.28
2017-05-11T10:50:22.882Z,20.39
2017-05-11T10:51:32.835Z,20.26
2017-05-11T10:52:43.100Z,20.29
2017-05-11T10:53:53.363Z,20.23
2017-05-11T10:55:03.322Z,20.23
2017-05-11T10:56:12.960Z,20.28
2017-05-11T10:57:22.590Z,20.29
2017-05-11T10:58:32.545Z,20.29
2017-05-11T10:59:42.181Z,20.33
2017-05-11T11:00:51.817Z,20.35
2017-05-11T11:02:02.086Z,20.26
2017-05-11T11:03:12.347Z,20.24
2017-05-11T11:04:22.303Z,20.29
2017-05-11T11:05:32.572Z,20.29
2017-05-11T11:06:42.526Z,20.26
2017-05-11T11:07:52.516Z,20.28
2017-05-11T11:09:02.786Z,20.24
2017-05-11T11:10:12.784Z,20.23
2017-05-11T11:11:22.109Z,20.24
2017-05-11T11:12:32.071Z,20.28
2017-05-11T11:13:42.336Z,20.29
2017-05-11T11:14:52.604Z,20.35
2017-05-11T11:16:02.866Z,20.32
2017-05-11T11:17:12.500Z,20.39
2017-05-11T11:18:22.758Z,20.16
2017-05-11T11:19:33.025Z,19.95
2017-05-11T11:20:42.978Z,19.91
2017-05-11T11:21:53.251Z,19.78
2017-05-11T11:23:03.202Z,19.81
2017-05-11T11:24:13.473Z,19.71
2017-05-11T11:25:23.731Z,19.81
2017-05-11T11:26:33.369Z,19.8
2017-05-11T11:27:43.323Z,19.95
2017-05-11T11:28:53.267Z,19.94
2017-05-11T11:30:02.939Z,20.08
2017-05-11T11:31:13.206Z,20.11
2017-05-11T11:32:23.468Z,20.16
2017-05-11T11:33:33.106Z,20.14
2017-05-11T11:34:43.375Z,20.23
2017-05-11T11:35:53.644Z,20.29
2017-05-11T11:37:03.599Z,20.23
2017-05-11T11:38:13.556Z,20.29
2017-05-11T11:39:23.515Z,20.33
2017-05-11T11:40:33.779Z,20.35
2017-05-11T11:41:44.050Z,20.32
2017-05-11T11:42:54.001Z,20.24
2017-05-11T11:44:04.266Z,20.32
2017-05-11T11:45:13.900Z,20.28
2017-05-11T11:46:24.171Z,20.31
2017-05-11T11:47:33.809Z,20.33
2017-05-11T11:48:44.111Z,20.32
2017-05-11T11:49:54.383Z,20.32
2017-05-11T11:51:04.647Z,20.33
2017-05-11T11:52:13.974Z,20.39
2017-05-11T11:53:24.242Z,20.31
2017-05-11T11:54:34.187Z,20.35
2017-05-11T11:55:43.831Z,20.35
2017-05-11T11:56:54.101Z,20.38
2017-05-11T11:58:04.366Z,20.41
2017-05-11T11:59:14.334Z,20.35
2017-05-11T12:00:24.289Z,20.29
2017-05-11T12:01:34.551Z,20.39
2017-05-11T12:02:44.816Z,20.38
2017-05-11T12:03:55.132Z,20.36
2017-05-11T12:05:05.087Z,20.39
2017-05-11T12:06:15.051Z,20.51
2017-05-11T12:07:25.016Z,20.47
2017-05-11T12:08:35.292Z,20.47
2017-05-11T12:09:45.242Z,20.47
2017-05-11T12:10:55.508Z,20.47
2017-05-11T12:12:05.147Z,20.5
2017-05-11T12:13:15.092Z,20.43
2017-05-11T12:14:25.039Z,20.55
2017-05-11T12:15:34.990Z,20.57
2017-05-11T12:16:45.247Z,20.47
2017-05-11T12:17:55.202Z,20.5
2017-05-11T12:19:05.152Z,20.54
2017-05-11T12:20:15.111Z,20.58
2017-05-11T12:21:25.063Z,20.48
2017-05-11T12:22:35.329Z,20.51
2017-05-11T12:23:45.623Z,20.47
2017-05-11T12:24:55.569Z,20.51
2017-05-11T12:26:05.205Z,20.41
2017-05-11T12:27:15.155Z,20.43
2017-05-11T12:28:25.415Z,20.47
2017-05-11T12:29:35.368Z,20.36
2017-05-11T12:30:45.004Z,20.35
2017-05-11T12:31:54.954Z,20.42
2017-05-11T12:33:04.900Z,20.32
2017-05-11T12:34:15.164Z,20.39
2017-05-11T12:35:25.113Z,20.38
2017-05-11T12:36:35.063Z,20.41
2017-05-11T12:37:45.016Z,20.29
2017-05-11T12:38:55.284Z,20.36
2017-05-11T12:40:05.235Z,20.35
2017-05-11T12:41:14.880Z,20.36
2017-05-11T12:42:25.146Z,20.33
2017-05-11T12:43:35.408Z,20.31
2017-05-11T12:44:45.671Z,20.33
2017-05-11T12:45:55.628Z,20.38
2017-05-11T12:47:05.257Z,20.29
2017-05-11T12:48:15.211Z,20.29
2017-05-11T12:49:25.161Z,20.31
2017-05-11T12:50:35.117Z,20.33
2017-05-11T12:51:45.381Z,20.36
2017-05-11T12:52:55.329Z,20.31
2017-05-11T12:54:05.597Z,20.29
2017-05-11T12:55:15.228Z,20.31
2017-05-11T12:56:24.882Z,20.32
2017-05-11T12:57:35.156Z,20.35
2017-05-11T12:58:45.113Z,20.32
2017-05-11T12:59:55.379Z,20.33
2017-05-11T13:01:05.010Z,20.31
2017-05-11T13:02:14.970Z,20.29
2017-05-11T13:03:25.231Z,20.32
2017-05-11T13:04:35.182Z,20.33
2017-05-11T13:05:45.144Z,20.31
2017-05-11T13:06:55.408Z,20.32
2017-05-11T13:08:05.040Z,20.36
2017-05-11T13:09:15.306Z,20.38
2017-05-11T13:10:25.252Z,20.35
2017-05-11T13:11:35.196Z,20.29
2017-05-11T13:12:45.147Z,20.32
2017-05-11T13:13:55.096Z,20.32
2017-05-11T13:15:05.042Z,20.31
2017-05-11T13:16:15.310Z,20.36
2017-05-11T13:17:24.947Z,20.33
2017-05-11T13:18:35.210Z,20.31
2017-05-11T13:19:45.488Z,20.36
2017-05-11T13:20:55.484Z,20.35
2017-05-11T13:22:05.135Z,20.31
2017-05-11T13:23:14.455Z,20.31
2017-05-11T13:24:24.090Z,20.35
2017-05-11T13:25:34.355Z,20.31
2017-05-11T13:26:44.628Z,20.28
2017-05-11T13:27:54.887Z,20.35
2017-05-11T13:29:04.843Z,20.31
2017-05-11T13:30:15.104Z,20.33
2017-05-11T13:31:25.051Z,20.35
2017-05-11T13:32:35.320Z,20.31
2017-05-11T13:33:44.641Z,20.36
2017-05-11T13:34:54.591Z,20.31
2017-05-11T13:36:04.861Z,20.31
2017-05-11T13:37:14.830Z,20.29
2017-05-11T13:38:24.780Z,20.35
2017-05-11T13:39:34.734Z,20.31
2017-05-11T13:40:44.679Z,20.35
2017-05-11T13:41:54.971Z,20.29
2017-05-11T13:43:05.244Z,20.28
2017-05-11T13:44:15.195Z,20.28
2017-05-11T13:45:24.868Z,20.31
2017-05-11T13:46:35.127Z,20.33
2017-05-11T13:47:45.394Z,20.32
2017-05-11T13:48:55.351Z,20.35
2017-05-11T13:50:05.314Z,20.35
2017-05-11T13:51:15.263Z,20.31
2017-05-11T13:52:25.224Z,20.31
2017-05-11T13:53:34.868Z,20.29
2017-05-11T13:54:45.706Z,20.33
2017-05-11T13:55:55.971Z,20.31
2017-05-11T13:57:05.924Z,20.33
2017-05-11T13:58:16.191Z,20.33
2017-05-11T13:59:26.456Z,20.31
2017-05-11T14:00:36.726Z,20.31
2017-05-11T14:01:46.993Z,20.31
2017-05-11T14:02:57.273Z,20.38
2017-05-11T14:04:07.540Z,20.31
2017-05-11T14:05:17.501Z,20.31
2017-05-11T14:06:27.461Z,20.33
2017-05-11T14:07:37.731Z,20.36
2017-05-11T14:08:47.368Z,20.31
2017-05-11T14:09:57.649Z,20.29
2017-05-11T14:11:07.616Z,20.31
2017-05-11T14:12:17.289Z,20.28
2017-05-11T14:13:27.565Z,20.33
2017-05-11T14:14:37.829Z,20.32
2017-05-11T14:15:48.106Z,20.35
2017-05-11T14:16:58.057Z,20.36
2017-05-11T14:18:08.013Z,20.32
2017-05-11T14:19:18.274Z,20.35
2017-05-11T14:20:28.230Z,20.35
2017-05-11T14:21:37.878Z,20.35
2017-05-11T14:22:48.149Z,20.33
2017-05-11T14:23:58.414Z,20.31
2017-05-11T14:25:08.685Z,20.38
2017-05-11T14:26:18.976Z,20.33
2017-05-11T14:27:28.932Z,20.29
2017-05-11T14:28:39.218Z,20.38
2017-05-11T14:29:49.165Z,20.29
2017-05-11T14:30:59.426Z,20.31
2017-05-11T14:32:09.692Z,20.32
2017-05-11T14:33:19.646Z,20.32
2017-05-11T14:34:29.601Z,20.33
2017-05-11T14:35:39.871Z,20.33
2017-05-11T14:36:50.138Z,20.33
2017-05-11T14:38:00.408Z,20.39
2017-05-11T14:39:10.364Z,20.33
2017-05-11T14:40:20.003Z,20.32
2017-05-11T14:41:29.960Z,20.29
2017-05-11T14:42:39.916Z,20.32
2017-05-11T14:43:49.555Z,20.31
2017-05-11T14:44:59.824Z,20.31
2017-05-11T14:46:09.778Z,20.31
2017-05-11T14:47:19.748Z,20.32
2017-05-11T14:48:30.010Z,20.36
2017-05-11T14:49:39.964Z,20.38
2017-05-11T14:50:50.238Z,20.33
2017-05-11T14:51:59.883Z,20.33
2017-05-11T14:53:10.142Z,20.31
2017-05-11T14:54:19.790Z,20.36
2017-05-11T14:55:29.737Z,20.38
2017-05-11T14:56:40.004Z,20.35
2017-05-11T14:57:50.283Z,20.29
2017-05-11T14:59:00.547Z,20.33
2017-05-11T15:00:10.812Z,20.38
2017-05-11T15:01:21.083Z,20.33
2017-05-11T15:02:31.033Z,20.32
2017-05-11T15:03:41.299Z,20.31